Time;durP1;ratioP1;P1;durP2;ratioP2;P2;SDS_P1;SDS_P2;PMS_P1;PMS_P2;Temp;Humidity;BMP_temperature;BMP_pressure;BME280_temperature;BME280_humidity;BME280_pressure;Samples;Min_cycle;Max_cycle;Signal;HPM_P1;HPM_P2
2023/04/16 00:00:55;;;;;;;35.40;14.23;;;10.00;79.70;;;;;;5018421;28;20472;-70
2023/04/16 00:03:22;;;;;;;37.50;13.93;;;10.00;79.80;;;;;;5016007;28;20153;-70
2023/04/16 00:05:49;;;;;;;36.60;14.40;;;10.00;79.60;;;;;;5030370;28;20511;-70
2023/04/16 00:08:16;;;;;;;40.78;15.85;;;10.00;79.70;;;;;;5015721;28;20049;-71
2023/04/16 00:10:45;;;;;;;34.65;14.10;;;10.00;80.00;;;;;;5028178;28;20082;-71
2023/04/16 00:13:12;;;;;;;34.03;12.88;;;10.00;80.00;;;;;;5022761;28;20073;-70
2023/04/16 00:15:39;;;;;;;37.03;13.70;;;10.00;80.10;;;;;;5048366;28;20518;-70
2023/04/16 00:18:06;;;;;;;38.83;14.30;;;10.00;80.40;;;;;;5029988;28;20137;-70
2023/04/16 00:20:32;;;;;;;36.65;14.85;;;10.00;80.20;;;;;;5047668;28;20189;-70
2023/04/16 00:22:59;;;;;;;39.25;14.77;;;10.00;80.50;;;;;;5037919;28;20693;-71
2023/04/16 00:25:26;;;;;;;38.63;14.35;;;10.00;80.50;;;;;;4991785;28;20513;-71
2023/04/16 00:27:55;;;;;;;34.17;11.77;;;10.00;80.50;;;;;;5032268;28;20080;-70
2023/04/16 00:30:22;;;;;;;35.77;14.47;;;10.00;80.40;;;;;;5020821;28;20046;-70
2023/04/16 00:32:49;;;;;;;37.78;13.65;;;10.00;80.40;;;;;;5008092;28;20073;-70
2023/04/16 00:35:16;;;;;;;35.97;14.10;;;10.00;80.40;;;;;;5021602;28;20111;-70
2023/04/16 00:37:43;;;;;;;35.00;15.18;;;10.00;80.90;;;;;;5036721;28;20128;-71
2023/04/16 00:40:11;;;;;;;39.65;14.52;;;10.00;81.10;;;;;;5007532;28;20057;-70
2023/04/16 00:42:38;;;;;;;37.87;16.03;;;10.00;80.60;;;;;;5005737;28;20049;-70
2023/04/16 00:45:08;;;;;;;37.35;15.48;;;10.00;80.50;;;;;;5021341;28;20080;-71
2023/04/16 00:47:35;;;;;;;41.92;15.02;;;10.00;80.40;;;;;;5029728;28;20095;-71
2023/04/16 00:50:03;;;;;;;38.08;15.32;;;10.00;80.50;;;;;;5024985;28;20083;-70
2023/04/16 00:52:31;;;;;;;43.53;16.33;;;10.00;80.40;;;;;;5014685;28;20054;-71
2023/04/16 00:54:59;;;;;;;39.73;14.50;;;10.00;80.20;;;;;;5047677;28;20077;-71
2023/04/16 00:57:26;;;;;;;32.00;14.70;;;10.00;80.10;;;;;;5030019;28;20053;-70
2023/04/16 00:59:54;;;;;;;38.13;15.07;;;10.00;80.20;;;;;;5026973;28;20497;-71
2023/04/16 01:02:22;;;;;;;38.35;15.63;;;10.00;80.00;;;;;;5021396;28;20547;-70
2023/04/16 01:04:51;;;;;;;32.38;12.93;;;10.00;80.10;;;;;;5028912;28;20045;-71
2023/04/16 01:07:18;;;;;;;36.57;15.30;;;10.00;80.60;;;;;;5043920;28;20161;-70
2023/04/16 01:09:45;;;;;;;32.45;13.10;;;10.00;80.60;;;;;;5008933;28;20054;-70
2023/04/16 01:12:12;;;;;;;36.90;15.70;;;10.00;80.50;;;;;;5027965;28;20363;-70
2023/04/16 01:14:39;;;;;;;38.65;15.32;;;10.00;80.70;;;;;;5012294;28;20456;-70
2023/04/16 01:17:06;;;;;;;46.38;16.58;;;10.00;80.60;;;;;;5036296;28;20181;-71
2023/04/16 01:19:36;;;;;;;36.67;14.60;;;10.00;80.30;;;;;;5028877;28;20045;-70
2023/04/16 01:22:05;;;;;;;39.03;15.10;;;10.00;80.10;;;;;;5026795;28;20049;-72
2023/04/16 01:24:32;;;;;;;41.97;15.20;;;10.00;80.10;;;;;;5009564;28;20493;-71
2023/04/16 01:26:59;;;;;;;42.22;15.07;;;10.00;80.50;;;;;;5026116;28;20534;-70
2023/04/16 01:29:26;;;;;;;42.83;15.85;;;10.00;80.50;;;;;;5033640;28;20529;-71
2023/04/16 01:31:55;;;;;;;40.67;15.27;;;10.00;80.10;;;;;;5004045;28;20041;-71
2023/04/16 01:34:26;;;;;;;40.10;15.77;;;10.00;80.10;;;;;;4991574;28;20046;-70
2023/04/16 01:36:53;;;;;;;39.92;15.18;;;10.00;80.00;;;;;;4993227;28;20082;-70
2023/04/16 01:39:22;;;;;;;42.28;16.70;;;10.00;79.90;;;;;;5019288;28;20514;-71
2023/04/16 01:41:49;;;;;;;42.20;15.07;;;10.00;80.10;;;;;;5035284;28;20109;-70
2023/04/16 01:44:16;;;;;;;41.50;16.00;;;10.00;79.90;;;;;;5028830;28;20057;-71
2023/04/16 01:46:44;;;;;;;39.67;15.75;;;10.00;80.00;;;;;;5012738;28;20061;-70
2023/04/16 01:49:11;;;;;;;42.65;15.85;;;10.00;80.00;;;;;;5028022;28;20510;-71
2023/04/16 01:51:38;;;;;;;43.60;16.65;;;10.00;79.90;;;;;;5027816;28;20053;-70
2023/04/16 01:54:05;;;;;;;42.13;15.80;;;10.00;80.30;;;;;;5050558;28;20498;-70
2023/04/16 01:56:33;;;;;;;36.57;13.40;;;10.00;80.40;;;;;;5031827;28;20049;-70
2023/04/16 01:59:00;;;;;;;45.03;15.85;;;10.00;80.20;;;;;;5031425;28;20053;-70
2023/04/16 02:01:33;;;;;;;41.92;15.98;;;10.00;80.80;;;;;;5015218;28;20179;-70
2023/04/16 02:04:00;;;;;;;52.13;17.45;;;10.00;80.50;;;;;;4998282;28;20046;-70
2023/04/16 02:06:27;;;;;;;45.10;16.17;;;10.00;80.30;;;;;;4995712;28;20567;-71
2023/04/16 02:08:54;;;;;;;43.53;15.97;;;10.00;80.20;;;;;;5008770;28;20113;-70
2023/04/16 02:11:21;;;;;;;42.60;15.18;;;10.00;80.10;;;;;;5010736;28;20524;-71
2023/04/16 02:13:51;;;;;;;44.67;16.63;;;10.00;80.00;;;;;;5010716;28;20050;-70
2023/04/16 02:16:19;;;;;;;42.40;15.40;;;10.00;80.00;;;;;;4994644;28;20050;-71
2023/04/16 02:18:52;;;;;;;39.65;15.88;;;10.00;80.00;;;;;;5010476;28;20041;-70
2023/04/16 02:21:21;;;;;;;39.93;15.40;;;10.00;79.90;;;;;;5011693;28;20046;-71
2023/04/16 02:23:50;;;;;;;40.30;16.75;;;10.00;79.60;;;;;;5027552;28;20045;-70
2023/04/16 02:26:19;;;;;;;41.22;15.80;;;10.00;79.80;;;;;;5015256;28;20119;-70
2023/04/16 02:28:47;;;;;;;40.78;16.77;;;10.00;79.80;;;;;;5013548;28;20622;-70
2023/04/16 02:31:18;;;;;;;40.95;15.88;;;10.00;79.80;;;;;;5024879;28;20499;-70
2023/04/16 02:33:45;;;;;;;38.23;15.83;;;10.00;79.80;;;;;;5011720;28;20097;-70
2023/04/16 02:36:12;;;;;;;37.83;16.50;;;10.00;79.60;;;;;;5011708;28;20516;-70
2023/04/16 02:38:39;;;;;;;41.10;16.52;;;10.00;79.70;;;;;;4995549;28;20058;-71
2023/04/16 02:41:07;;;;;;;39.80;15.93;;;10.00;79.40;;;;;;5010983;28;20524;-72
2023/04/16 02:43:34;;;;;;;40.63;16.10;;;10.00;79.70;;;;;;5031409;28;20136;-70
2023/04/16 02:46:02;;;;;;;42.20;15.80;;;10.00;79.70;;;;;;5031388;28;20530;-70
2023/04/16 02:48:30;;;;;;;40.20;16.80;;;10.00;79.60;;;;;;5031542;28;20054;-71
2023/04/16 02:50:57;;;;;;;38.88;16.52;;;10.00;79.60;;;;;;5030575;28;20609;-72
2023/04/16 02:53:24;;;;;;;39.38;16.13;;;10.00;79.50;;;;;;5027773;28;20046;-71
2023/04/16 02:55:52;;;;;;;37.78;14.95;;;10.00;79.40;;;;;;5029843;28;20500;-71
2023/04/16 02:58:20;;;;;;;40.70;16.73;;;10.00;79.30;;;;;;5015606;28;20073;-70
2023/04/16 03:00:47;;;;;;;41.33;16.60;;;10.00;79.60;;;;;;5003677;28;20057;-70
2023/04/16 03:03:14;;;;;;;40.88;17.10;;;10.00;79.50;;;;;;5011832;28;20633;-71
2023/04/16 03:05:43;;;;;;;38.60;17.85;;;10.00;79.60;;;;;;5027433;28;20550;-70
2023/04/16 03:08:10;;;;;;;40.28;16.35;;;10.00;79.60;;;;;;5026170;28;20050;-70
2023/04/16 03:10:37;;;;;;;34.23;16.33;;;10.00;79.40;;;;;;5027181;28;20054;-70
2023/04/16 03:13:04;;;;;;;36.83;16.00;;;10.00;79.30;;;;;;5014434;28;20054;-70
2023/04/16 03:15:31;;;;;;;40.47;15.65;;;10.00;79.30;;;;;;5029952;28;20247;-70
2023/04/16 03:17:59;;;;;;;35.33;15.68;;;10.00;79.30;;;;;;5031418;28;20058;-70
2023/04/16 03:20:26;;;;;;;33.97;15.77;;;10.00;79.30;;;;;;5029971;28;20133;-70
2023/04/16 03:22:56;;;;;;;38.33;16.60;;;10.00;79.30;;;;;;5027375;28;20052;-71
2023/04/16 03:25:23;;;;;;;37.83;15.65;;;10.00;79.30;;;;;;5024161;28;20050;-71
2023/04/16 03:27:50;;;;;;;35.10;15.32;;;10.00;79.30;;;;;;5014068;28;20138;-70
2023/04/16 03:30:17;;;;;;;38.17;14.98;;;10.00;79.00;;;;;;5005302;28;20490;-70
2023/04/16 03:32:44;;;;;;;31.40;14.98;;;10.00;79.00;;;;;;5029069;28;20139;-70
2023/04/16 03:35:12;;;;;;;33.80;16.67;;;10.00;79.20;;;;;;5031059;28;20054;-70
2023/04/16 03:37:39;;;;;;;41.30;16.15;;;10.00;79.20;;;;;;5013933;28;20057;-70
2023/04/16 03:40:08;;;;;;;37.83;16.15;;;10.00;79.30;;;;;;5030067;28;20076;-70
2023/04/16 03:42:35;;;;;;;35.53;15.65;;;10.00;79.10;;;;;;5030434;28;20143;-71
2023/04/16 03:45:03;;;;;;;34.08;15.40;;;10.00;79.10;;;;;;5047036;28;20643;-71
2023/04/16 03:47:31;;;;;;;39.47;16.07;;;10.00;79.20;;;;;;5047137;28;20049;-70
2023/04/16 03:50:02;;;;;;;38.58;16.40;;;10.00;79.30;;;;;;5025647;28;20065;-71
2023/04/16 03:52:29;;;;;;;39.33;16.90;;;10.00;79.20;;;;;;4994033;28;20081;-70
2023/04/16 03:54:57;;;;;;;40.17;16.75;;;10.00;79.20;;;;;;4996001;28;20049;-70
2023/04/16 03:57:28;;;;;;;37.25;16.55;;;10.00;79.30;;;;;;5013964;28;20157;-71
2023/04/16 04:00:00;;;;;;;35.77;16.60;;;10.00;79.20;;;;;;5029643;28;20256;-71
2023/04/16 04:02:30;;;;;;;40.22;17.90;;;10.00;79.30;;;;;;5048208;28;20128;-70
2023/04/16 04:04:57;;;;;;;39.45;17.00;;;10.00;79.30;;;;;;5029921;28;20053;-71
2023/04/16 04:07:24;;;;;;;37.38;16.30;;;10.00;79.30;;;;;;5028195;28;20137;-71
2023/04/16 04:09:52;;;;;;;38.70;16.95;;;10.00;79.30;;;;;;5012687;28;20049;-71
2023/04/16 04:12:19;;;;;;;42.87;17.73;;;10.00;79.20;;;;;;5013287;28;20107;-71
2023/04/16 04:14:48;;;;;;;42.20;17.85;;;10.00;79.30;;;;;;5029212;28;20058;-71
2023/04/16 04:17:15;;;;;;;42.85;17.23;;;10.00;79.30;;;;;;5030124;28;20053;-70
2023/04/16 04:19:42;;;;;;;43.88;18.13;;;9.90;79.30;;;;;;5029293;28;20436;-70
2023/04/16 04:22:10;;;;;;;43.67;17.80;;;9.90;79.20;;;;;;5026583;28;20652;-71
2023/04/16 04:24:38;;;;;;;40.17;17.60;;;9.90;79.30;;;;;;4991781;28;20453;-71
2023/04/16 04:27:05;;;;;;;45.33;18.60;;;9.90;79.30;;;;;;5010170;28;21098;-71
2023/04/16 04:29:32;;;;;;;35.90;15.60;;;9.90;79.30;;;;;;5012666;28;20041;-70
2023/04/16 04:32:01;;;;;;;38.70;17.58;;;10.00;79.00;;;;;;5029798;28;20057;-70
2023/04/16 04:34:28;;;;;;;41.63;17.15;;;10.00;79.20;;;;;;5029515;28;20060;-71
2023/04/16 04:36:59;;;;;;;39.80;17.67;;;9.90;79.20;;;;;;5029840;28;20049;-70
2023/04/16 04:39:27;;;;;;;38.17;17.30;;;10.00;79.30;;;;;;5004945;28;20143;-70
2023/04/16 04:41:55;;;;;;;36.25;16.83;;;10.00;79.10;;;;;;5005135;28;20468;-70
2023/04/16 04:44:22;;;;;;;36.92;16.67;;;10.00;79.20;;;;;;5023901;28;20054;-70
2023/04/16 04:46:49;;;;;;;37.47;17.08;;;9.90;79.10;;;;;;5001335;28;20045;-70
2023/04/16 04:49:17;;;;;;;41.87;17.33;;;10.00;79.20;;;;;;5022528;28;20081;-71
2023/04/16 04:51:44;;;;;;;39.08;17.27;;;10.00;79.30;;;;;;5022147;28;20167;-70
2023/04/16 04:54:11;;;;;;;40.88;17.70;;;10.00;79.20;;;;;;5009886;28;20054;-71
2023/04/16 04:56:38;;;;;;;39.22;17.40;;;10.00;79.20;;;;;;5045141;28;20115;-70
2023/04/16 04:59:05;;;;;;;39.95;17.63;;;9.90;79.10;;;;;;5039334;28;20622;-70
2023/04/16 05:01:33;;;;;;;40.50;17.17;;;10.00;79.10;;;;;;5010025;28;20046;-71
2023/04/16 05:04:01;;;;;;;39.45;16.48;;;10.00;79.10;;;;;;5009587;28;20143;-70
2023/04/16 05:06:30;;;;;;;35.55;16.60;;;9.90;79.00;;;;;;5012628;28;20136;-70
2023/04/16 05:08:57;;;;;;;37.17;16.17;;;10.00;79.00;;;;;;5009115;28;20132;-71
2023/04/16 05:11:24;;;;;;;31.30;14.63;;;10.00;78.70;;;;;;5027919;28;20132;-70
2023/04/16 05:13:51;;;;;;;34.90;15.90;;;10.00;78.70;;;;;;5028127;28;20430;-70
2023/04/16 05:16:18;;;;;;;33.53;15.90;;;10.00;78.60;;;;;;5008904;28;20141;-70
2023/04/16 05:18:45;;;;;;;37.85;14.73;;;10.00;78.70;;;;;;4993579;28;20110;-70
2023/04/16 05:21:13;;;;;;;34.03;14.93;;;10.00;78.50;;;;;;5009409;28;20081;-70
2023/04/16 05:23:41;;;;;;;37.40;16.13;;;10.00;78.70;;;;;;5025164;28;20069;-70
2023/04/16 05:26:08;;;;;;;34.20;16.03;;;10.00;78.80;;;;;;5028558;28;20092;-70
2023/04/16 05:28:35;;;;;;;34.17;15.18;;;10.00;78.70;;;;;;5046697;28;20058;-70
2023/04/16 05:31:02;;;;;;;32.88;15.50;;;10.00;78.60;;;;;;5035303;28;20077;-70
2023/04/16 05:33:29;;;;;;;34.63;15.43;;;10.00;78.70;;;;;;5018473;28;20046;-70
2023/04/16 05:35:56;;;;;;;33.47;14.65;;;10.00;78.70;;;;;;5036104;28;20085;-70
2023/04/16 05:38:23;;;;;;;35.10;14.97;;;10.00;78.60;;;;;;5019078;28;20132;-70
2023/04/16 05:40:52;;;;;;;30.77;14.80;;;10.00;78.80;;;;;;5035989;28;20077;-70
2023/04/16 05:43:19;;;;;;;33.45;14.57;;;10.00;78.80;;;;;;5009435;28;20456;-70
2023/04/16 05:45:46;;;;;;;35.78;16.67;;;10.00;78.70;;;;;;5010625;28;20676;-70
2023/04/16 05:48:13;;;;;;;34.25;14.55;;;10.00;78.80;;;;;;5027161;28;20049;-70
2023/04/16 05:50:41;;;;;;;35.03;15.40;;;10.00;78.70;;;;;;5021733;28;20491;-71
2023/04/16 05:53:09;;;;;;;37.97;15.93;;;10.00;78.80;;;;;;5020526;28;20108;-70
2023/04/16 05:55:36;;;;;;;34.03;15.25;;;10.00;78.90;;;;;;5034714;28;20454;-71
2023/04/16 05:58:05;;;;;;;29.05;14.38;;;10.00;78.90;;;;;;5045411;28;20542;-70
2023/04/16 06:00:33;;;;;;;39.08;16.33;;;10.00;79.10;;;;;;5043408;28;20152;-70
2023/04/16 06:03:00;;;;;;;32.33;14.67;;;10.00;79.40;;;;;;5028447;28;20050;-70
2023/04/16 06:05:27;;;;;;;35.38;15.48;;;10.00;79.20;;;;;;5045632;28;20165;-71
2023/04/16 06:07:54;;;;;;;33.08;15.82;;;9.90;79.40;;;;;;5044183;28;20511;-70
2023/04/16 06:10:22;;;;;;;32.28;15.77;;;9.90;79.30;;;;;;5039441;28;20057;-71
2023/04/16 06:12:49;;;;;;;31.42;15.40;;;9.90;79.10;;;;;;5039347;28;20077;-71
2023/04/16 06:15:17;;;;;;;32.93;14.93;;;9.90;79.10;;;;;;5043464;28;20146;-70
2023/04/16 06:17:45;;;;;;;35.38;15.35;;;9.90;79.10;;;;;;5026449;28;20041;-70
2023/04/16 06:20:12;;;;;;;29.30;15.07;;;9.90;79.10;;;;;;5043618;28;20157;-70
2023/04/16 06:22:40;;;;;;;32.50;15.90;;;9.90;79.20;;;;;;5024895;28;20057;-71
2023/04/16 06:25:08;;;;;;;29.40;14.95;;;9.90;79.20;;;;;;5026181;28;20048;-71
2023/04/16 06:27:36;;;;;;;33.17;15.63;;;9.90;79.30;;;;;;5023230;28;20606;-71
2023/04/16 06:30:03;;;;;;;33.20;15.70;;;9.90;79.20;;;;;;5007519;28;20495;-70
2023/04/16 06:32:31;;;;;;;37.47;16.10;;;9.90;79.30;;;;;;5042692;28;20132;-70
2023/04/16 06:34:59;;;;;;;31.35;15.10;;;9.90;79.20;;;;;;5026910;28;20553;-70
2023/04/16 06:37:26;;;;;;;30.35;14.02;;;10.00;79.20;;;;;;5029737;28;20495;-70
2023/04/16 06:39:53;;;;;;;33.33;15.80;;;10.00;79.10;;;;;;5028718;28;20661;-70
2023/04/16 06:42:20;;;;;;;34.05;15.70;;;10.00;79.20;;;;;;5046495;28;20820;-70
2023/04/16 06:44:48;;;;;;;29.52;14.70;;;10.00;79.20;;;;;;5026571;28;20931;-70
2023/04/16 06:47:15;;;;;;;32.65;14.98;;;10.00;79.20;;;;;;5031762;28;20081;-70
2023/04/16 06:49:44;;;;;;;29.70;13.88;;;10.00;79.10;;;;;;5036757;28;20491;-70
2023/04/16 06:52:11;;;;;;;28.63;14.77;;;10.00;79.10;;;;;;5025022;28;20228;-70
2023/04/16 06:54:39;;;;;;;31.08;13.52;;;10.00;79.20;;;;;;5031914;28;20045;-70
2023/04/16 06:57:06;;;;;;;27.98;13.75;;;10.00;79.00;;;;;;5028577;28;20046;-70
2023/04/16 06:59:33;;;;;;;30.88;15.38;;;10.00;79.10;;;;;;5034021;28;20053;-69
2023/04/16 07:02:00;;;;;;;30.77;14.60;;;10.00;79.20;;;;;;5043566;28;20078;-70
2023/04/16 07:04:27;;;;;;;29.67;14.53;;;10.00;79.00;;;;;;5027890;28;21177;-70
2023/04/16 07:06:55;;;;;;;29.77;14.05;;;10.00;79.10;;;;;;5027103;28;20059;-70
2023/04/16 07:09:23;;;;;;;30.85;14.50;;;10.00;79.10;;;;;;5039432;28;20060;-70
2023/04/16 07:11:50;;;;;;;29.70;13.80;;;10.00;79.10;;;;;;5022960;28;20054;-69
2023/04/16 07:14:17;;;;;;;29.63;14.13;;;10.00;79.30;;;;;;5042278;28;20200;-70
2023/04/16 07:16:44;;;;;;;33.93;14.83;;;10.00;79.30;;;;;;5025159;28;20184;-70
2023/04/16 07:19:11;;;;;;;30.13;15.57;;;10.00;79.30;;;;;;5025916;28;20096;-71
2023/04/16 07:21:38;;;;;;;30.52;14.23;;;10.00;79.30;;;;;;5044098;28;20053;-70
2023/04/16 07:24:07;;;;;;;30.30;14.95;;;10.10;79.40;;;;;;5041296;28;20081;-70
2023/04/16 07:26:34;;;;;;;29.70;14.85;;;10.10;79.50;;;;;;5025182;28;20054;-70
2023/04/16 07:29:01;;;;;;;29.20;14.27;;;10.10;79.40;;;;;;5021157;28;20061;-70
2023/04/16 07:31:28;;;;;;;28.17;13.43;;;10.10;79.60;;;;;;5020444;28;20136;-70
2023/04/16 07:34:21;;;;;;;29.02;14.60;;;10.10;79.50;;;;;;5017954;28;20073;-70
2023/04/16 07:36:48;;;;;;;29.67;14.60;;;10.10;79.50;;;;;;5018765;28;20050;-70
2023/04/16 07:39:16;;;;;;;31.20;15.73;;;10.10;79.60;;;;;;5036898;28;20147;-69
2023/04/16 07:41:44;;;;;;;32.40;14.53;;;10.20;80.00;;;;;;5018817;28;20049;-70
2023/04/16 07:44:11;;;;;;;30.02;14.30;;;10.20;80.30;;;;;;5036903;28;20061;-70
2023/04/16 07:46:38;;;;;;;27.70;13.52;;;10.20;80.10;;;;;;5015313;28;20053;-71
2023/04/16 07:49:05;;;;;;;29.75;13.68;;;10.20;79.90;;;;;;5040583;28;20057;-71
2023/04/16 07:51:32;;;;;;;31.55;13.73;;;10.20;79.70;;;;;;5035620;28;20053;-70
2023/04/16 07:53:59;;;;;;;25.20;12.27;;;10.30;79.90;;;;;;5027464;28;20176;-71
2023/04/16 07:56:27;;;;;;;28.58;13.88;;;10.30;79.90;;;;;;5025548;28;20053;-71
2023/04/16 07:58:55;;;;;;;30.63;14.73;;;10.30;79.90;;;;;;5011902;28;20120;-70
2023/04/16 08:01:22;;;;;;;28.63;13.75;;;10.30;79.80;;;;;;5027144;28;20619;-70
2023/04/16 08:03:49;;;;;;;31.40;13.52;;;10.30;79.80;;;;;;5034899;28;20081;-71
2023/04/16 08:06:16;;;;;;;28.83;14.30;;;10.40;79.80;;;;;;5035810;28;20173;-71
2023/04/16 08:08:43;;;;;;;27.50;13.15;;;10.40;80.00;;;;;;5035828;28;20534;-71
2023/04/16 08:11:11;;;;;;;24.67;12.93;;;10.40;79.80;;;;;;5013527;28;20125;-71
2023/04/16 08:13:40;;;;;;;31.05;14.40;;;10.40;79.90;;;;;;5046190;28;20993;-70
2023/04/16 08:16:07;;;;;;;26.92;13.65;;;10.40;79.90;;;;;;5021920;28;20609;-70
2023/04/16 08:18:34;;;;;;;25.63;12.47;;;10.40;79.70;;;;;;5045255;28;20053;-70
2023/04/16 08:21:01;;;;;;;24.48;12.35;;;10.50;79.70;;;;;;5026234;28;20049;-71
2023/04/16 08:23:28;;;;;;;26.85;13.13;;;10.50;79.70;;;;;;5036487;28;20495;-70
2023/04/16 08:25:55;;;;;;;30.73;13.20;;;10.50;79.90;;;;;;5021960;28;20053;-71
2023/04/16 08:28:23;;;;;;;32.15;13.52;;;10.60;79.90;;;;;;5022705;28;20076;-71
2023/04/16 08:30:51;;;;;;;32.17;12.33;;;10.60;79.70;;;;;;5039965;28;20515;-70
2023/04/16 08:33:18;;;;;;;30.20;13.35;;;10.60;79.80;;;;;;5029737;28;20685;-71
2023/04/16 08:35:45;;;;;;;29.50;14.50;;;10.70;79.80;;;;;;5038336;28;20107;-71
2023/04/16 08:38:12;;;;;;;26.20;12.40;;;10.70;79.80;;;;;;5039655;28;20058;-70
2023/04/16 08:40:42;;;;;;;30.00;13.57;;;10.70;79.80;;;;;;5028478;28;20463;-71
2023/04/16 08:43:12;;;;;;;30.67;13.13;;;10.70;79.80;;;;;;5029175;28;20136;-71
2023/04/16 08:45:41;;;;;;;27.20;13.07;;;10.70;79.80;;;;;;5025430;28;20049;-71
2023/04/16 08:48:11;;;;;;;27.45;13.15;;;10.70;80.00;;;;;;5035460;28;20049;-71
2023/04/16 08:50:40;;;;;;;28.05;13.88;;;10.80;79.80;;;;;;5021323;28;20152;-71
2023/04/16 08:53:11;;;;;;;22.45;10.10;;;10.80;79.80;;;;;;5021190;28;20077;-71
2023/04/16 08:55:41;;;;;;;27.43;12.93;;;10.80;79.60;;;;;;5020946;28;20536;-71
2023/04/16 08:58:13;;;;;;;27.10;13.05;;;10.80;79.60;;;;;;5021540;28;20056;-71
2023/04/16 09:00:40;;;;;;;27.30;13.00;;;10.90;79.50;;;;;;5028138;28;20107;-71
2023/04/16 09:03:10;;;;;;;24.55;12.77;;;10.90;79.50;;;;;;5023529;28;20055;-71
2023/04/16 09:05:38;;;;;;;28.92;13.20;;;10.90;79.60;;;;;;5026737;28;20641;-71
2023/04/16 09:08:06;;;;;;;26.57;13.13;;;10.90;79.60;;;;;;5020105;28;20467;-71
2023/04/16 09:10:33;;;;;;;26.23;12.27;;;11.00;79.50;;;;;;5017913;28;20046;-71
2023/04/16 09:13:01;;;;;;;27.63;13.07;;;11.00;79.30;;;;;;5021627;28;20077;-70
2023/04/16 09:15:28;;;;;;;26.17;13.00;;;11.00;79.30;;;;;;5038606;28;20196;-71
2023/04/16 09:17:56;;;;;;;25.60;11.95;;;11.00;79.40;;;;;;5022882;28;20493;-71
2023/04/16 09:20:24;;;;;;;24.77;13.30;;;11.00;79.50;;;;;;5039133;28;20058;-72
2023/04/16 09:22:52;;;;;;;23.13;11.80;;;11.10;79.70;;;;;;5038275;28;20132;-71
2023/04/16 09:25:22;;;;;;;28.13;13.68;;;11.10;79.60;;;;;;5028996;28;20140;-71
2023/04/16 09:27:50;;;;;;;27.63;13.27;;;11.10;79.70;;;;;;5024276;28;20090;-71
2023/04/16 09:30:22;;;;;;;27.75;13.45;;;11.10;79.60;;;;;;5024554;28;20061;-71
2023/04/16 09:32:50;;;;;;;26.10;12.83;;;11.20;79.60;;;;;;5041288;28;20103;-71
2023/04/16 09:35:18;;;;;;;27.52;13.07;;;11.20;79.60;;;;;;5021501;28;20404;-71
2023/04/16 09:37:55;;;;;;;22.67;12.20;;;11.30;79.60;;;;;;5019928;28;20057;-71
2023/04/16 09:40:25;;;;;;;25.23;12.93;;;11.30;79.70;;;;;;5020438;28;20053;-71
2023/04/16 09:42:54;;;;;;;24.02;12.98;;;11.30;79.60;;;;;;5025498;28;20062;-71
2023/04/16 09:45:21;;;;;;;23.77;12.70;;;11.40;79.70;;;;;;4989799;28;20145;-73
2023/04/16 09:47:49;;;;;;;23.80;12.57;;;11.40;79.70;;;;;;5037403;28;20541;-71
2023/04/16 09:50:17;;;;;;;23.88;11.75;;;11.50;79.60;;;;;;5025178;28;20068;-71
2023/04/16 09:52:48;;;;;;;24.58;12.32;;;11.50;79.60;;;;;;5019889;28;20045;-71
2023/04/16 09:55:17;;;;;;;21.27;12.13;;;11.50;79.20;;;;;;5041567;28;20082;-71
2023/04/16 09:57:45;;;;;;;20.40;12.40;;;11.50;79.30;;;;;;5036233;28;20053;-71
2023/04/16 10:00:18;;;;;;;20.80;12.57;;;11.60;79.30;;;;;;5023576;28;20184;-72
2023/04/16 10:02:45;;;;;;;22.05;12.40;;;11.70;79.30;;;;;;5021549;28;20132;-71
2023/04/16 10:05:17;;;;;;;22.65;12.85;;;11.70;79.40;;;;;;5020696;28;20201;-71
2023/04/16 10:07:44;;;;;;;22.50;12.35;;;11.70;79.60;;;;;;5037892;28;20084;-71
2023/04/16 10:10:12;;;;;;;22.77;12.53;;;11.70;79.40;;;;;;5024623;28;20074;-71
2023/04/16 10:12:41;;;;;;;23.88;12.40;;;11.80;79.30;;;;;;5041164;28;20824;-71
2023/04/16 10:15:08;;;;;;;21.73;12.63;;;11.90;79.40;;;;;;5043168;28;20054;-71
2023/04/16 10:17:37;;;;;;;22.60;12.88;;;11.90;79.50;;;;;;5045680;28;20057;-71
2023/04/16 10:20:07;;;;;;;20.00;11.32;;;11.90;79.70;;;;;;5044541;28;20520;-72
2023/04/16 10:22:34;;;;;;;22.87;12.70;;;12.00;79.80;;;;;;5046370;28;20061;-71
2023/04/16 10:25:01;;;;;;;21.27;12.10;;;12.00;79.70;;;;;;5033790;28;20646;-71
2023/04/16 10:27:29;;;;;;;22.13;11.95;;;12.10;79.80;;;;;;5044448;28;20397;-71
2023/04/16 10:29:58;;;;;;;20.42;12.50;;;12.20;79.90;;;;;;5024516;28;20056;-71
2023/04/16 10:32:27;;;;;;;22.38;12.50;;;12.20;80.10;;;;;;5031674;28;20503;-71
2023/04/16 10:34:55;;;;;;;19.70;11.63;;;12.30;80.00;;;;;;5025702;28;20053;-71
2023/04/16 10:37:30;;;;;;;24.73;12.43;;;12.50;80.10;;;;;;5047382;28;20057;-71
2023/04/16 10:39:58;;;;;;;18.20;11.30;;;12.50;80.20;;;;;;5045752;28;20050;-72
2023/04/16 10:42:26;;;;;;;17.63;10.38;;;12.60;80.00;;;;;;5040089;28;20111;-71
2023/04/16 10:44:53;;;;;;;17.80;11.07;;;12.70;79.80;;;;;;5041969;28;20131;-72
2023/04/16 10:47:25;;;;;;;18.37;11.03;;;12.80;79.70;;;;;;5043391;28;20057;-71
2023/04/16 10:49:53;;;;;;;17.63;10.75;;;12.90;79.70;;;;;;5043965;28;20168;-71
2023/04/16 10:52:21;;;;;;;17.98;11.45;;;13.00;79.50;;;;;;5025016;28;20276;-71
2023/04/16 10:54:48;;;;;;;18.73;10.77;;;13.10;79.40;;;;;;5040244;28;20091;-72
2023/04/16 10:57:16;;;;;;;19.10;11.40;;;13.10;79.10;;;;;;5043781;28;20081;-71
2023/04/16 10:59:44;;;;;;;18.37;11.53;;;13.30;78.90;;;;;;5043812;28;20072;-72
2023/04/16 11:02:14;;;;;;;18.58;11.23;;;13.30;78.70;;;;;;5042804;28;20053;-71
2023/04/16 11:04:44;;;;;;;20.90;10.80;;;13.40;78.60;;;;;;5041047;28;20499;-72
2023/04/16 11:07:19;;;;;;;22.17;11.20;;;13.50;78.40;;;;;;5041738;28;20063;-71
2023/04/16 11:09:56;;;;;;;16.92;10.75;;;13.60;78.50;;;;;;5016326;28;20045;-72
2023/04/16 11:12:26;;;;;;;19.83;11.60;;;13.70;79.00;;;;;;5045871;28;20084;-71
2023/04/16 11:14:54;;;;;;;17.85;10.98;;;13.90;78.60;;;;;;5037652;28;20050;-71
2023/04/16 11:17:22;;;;;;;19.35;10.98;;;13.90;78.20;;;;;;5020567;28;20092;-71
2023/04/16 11:19:51;;;;;;;19.35;10.77;;;14.00;78.40;;;;;;5021775;28;20184;-71
2023/04/16 11:22:18;;;;;;;18.30;10.75;;;14.10;78.00;;;;;;5018502;28;20056;-71
2023/04/16 11:24:46;;;;;;;17.63;11.20;;;14.10;77.70;;;;;;5008476;28;20085;-71
2023/04/16 11:27:14;;;;;;;18.10;10.95;;;14.20;77.50;;;;;;5044800;28;20144;-71
2023/04/16 11:29:42;;;;;;;17.40;10.88;;;14.30;77.60;;;;;;5046967;28;20533;-71
2023/04/16 11:32:09;;;;;;;17.95;10.30;;;14.40;77.20;;;;;;5048562;28;20057;-71
2023/04/16 11:34:44;;;;;;;17.55;11.07;;;14.40;77.30;;;;;;5019669;28;20058;-71
2023/04/16 11:37:13;;;;;;;19.57;11.00;;;14.50;77.20;;;;;;5022103;28;20128;-71
2023/04/16 11:39:52;;;;;;;18.33;10.80;;;14.60;76.60;;;;;;5038414;28;20112;-71
2023/04/16 11:42:21;;;;;;;18.85;10.65;;;14.70;76.40;;;;;;5031274;28;20056;-71
2023/04/16 11:44:53;;;;;;;17.70;10.55;;;14.70;76.10;;;;;;5016318;28;20133;-71
2023/04/16 11:47:20;;;;;;;19.02;10.82;;;14.80;76.50;;;;;;5023431;28;20094;-71
2023/04/16 11:49:47;;;;;;;17.27;10.43;;;14.80;74.10;;;;;;5036106;28;20053;-71
2023/04/16 11:52:26;;;;;;;18.48;11.10;;;14.90;74.50;;;;;;5039275;28;21025;-71
2023/04/16 11:54:53;;;;;;;18.42;10.68;;;14.90;74.20;;;;;;5027841;28;20046;-71
2023/04/16 11:57:27;;;;;;;18.33;10.32;;;15.00;74.20;;;;;;5030147;28;20085;-71
2023/04/16 11:59:55;;;;;;;17.83;10.75;;;15.00;74.60;;;;;;5010770;28;20426;-71
2023/04/16 12:02:35;;;;;;;17.93;10.57;;;15.00;74.30;;;;;;5029062;28;20132;-71
2023/04/16 12:05:03;;;;;;;20.55;10.02;;;15.10;74.10;;;;;;5030442;28;20050;-71
2023/04/16 12:07:32;;;;;;;18.10;10.10;;;15.10;74.60;;;;;;5011723;28;21039;-71
2023/04/16 12:10:07;;;;;;;22.48;9.98;;;15.20;74.00;;;;;;4993670;28;20052;-71
2023/04/16 12:12:34;;;;;;;21.05;10.35;;;15.30;73.80;;;;;;5029083;28;20101;-72
2023/04/16 12:15:02;;;;;;;19.90;10.50;;;15.30;73.90;;;;;;5041053;28;21110;-71
2023/04/16 12:17:30;;;;;;;17.45;9.80;;;15.30;74.40;;;;;;5046276;28;20801;-71
2023/04/16 12:20:00;;;;;;;19.30;10.80;;;15.40;74.10;;;;;;5029080;28;20139;-71
2023/04/16 12:22:33;;;;;;;20.08;10.50;;;15.40;73.40;;;;;;5025301;28;20168;-71
2023/04/16 12:25:01;;;;;;;23.17;10.38;;;15.50;73.00;;;;;;5010175;28;20548;-71
2023/04/16 12:27:49;;;;;;;19.37;11.20;;;15.50;72.50;;;;;;5028909;28;20054;-71
2023/04/16 12:30:17;;;;;;;21.35;10.20;;;15.50;71.50;;;;;;5010024;28;20058;-71
2023/04/16 12:32:45;;;;;;;19.33;10.88;;;15.50;72.10;;;;;;5048323;28;20204;-71